Flight Track Log - Related Links

Times and Time Zones

All times are in EDT time to prevent confusion due to time zone crossing. See the ACA831 flight status page for this flight to view local times or setup timezone preferences in your user account.

Time Position Orientation Groundspeed Altitude Reporting Facility
EDT Latitude Longitude Course Direction KTS MPH feet Rate Location/Type
Mon 04:19:52 PM 45.4520 -73.7480 225° Southwest 157 181 1,600  Level FlightAware ADS-B
Mon 04:20:17 PM 45.4380 -73.7660 222° Southwest 187 215 2,600 2,640 Climbing FlightAware ADS-B
Mon 04:20:42 PM 45.4190 -73.7910 223° Southwest 221 254 3,800 2,836 Climbing FlightAware ADS-B
Mon 04:21:12 PM 45.3940 -73.8250 224° Southwest 258 297 5,200 2,073 Climbing FlightAware ADS-B
Mon 04:21:37 PM 45.3800 -73.8580 239° Southwest 255 293 5,700 1,029 Climbing FlightAware ADS-B
Mon 04:21:47 PM 45.3790 -73.8710 264° West 257 296 5,800 171 Climbing FlightAware ADS-B
Mon 04:22:12 PM 45.3850 -73.9180 280° West 263 303 5,800 120 Level FlightAware ADS-B
Mon 04:22:37 PM 45.3870 -73.9590 274° West 257 296 5,900 120 Climbing FlightAware ADS-B
Mon 04:23:02 PM 45.3900 -74.0040 275° West 262 302 5,900  Level FlightAware ADS-B
Mon 04:23:32 PM 45.3930 -74.0560 275° West 264 304 5,900  Level FlightAware ADS-B
Mon 04:24:02 PM 45.3960 -74.1080 275° West 261 300 5,900 436 Level FlightAware ADS-B
Mon 04:24:27 PM 45.3990 -74.1470 276° West 269 310 6,300 2,836 Climbing FlightAware ADS-B
Mon 04:24:57 PM 45.4020 -74.2000 275° West 267 307 8,500 4,533 Climbing FlightAware ADS-B
Mon 04:25:12 PM 45.4040 -74.2280 276° West 272 313 9,700 4,036 Climbing FlightAware ADS-B
Mon 04:25:52 PM 45.4090 -74.3020 276° West 291 335 12,200 3,225 Climbing FlightAware ADS-B
Mon 04:26:32 PM 45.4140 -74.3830 275° West 328 377 14,000 2,965 Climbing FlightAware ADS-B
Mon 04:27:17 PM 45.4090 -74.4790 266° West 351 404 16,400 3,318 Climbing FlightAware ADS-B
Mon 04:27:57 PM 45.3930 -74.5740 257° West 366 421 18,700 3,247 Climbing FlightAware ADS-B
Mon 04:28:42 PM 45.3740 -74.6810 256° West 381 438 21,000 2,965 Climbing FlightAware ADS-B
Mon 04:29:22 PM 45.3570 -74.7820 257° West 396 456 22,900 2,850 Climbing FlightAware ADS-B
Mon 04:30:02 PM 45.3400 -74.8850 257° West 404 465 24,800 2,682 Climbing FlightAware ADS-B
Mon 04:30:47 PM 45.3190 -75.0040 256° West 415 478 26,700 2,400 Climbing FlightAware ADS-B
Mon 04:31:27 PM 45.3010 -75.1090 256° West 423 487 28,200 2,541 Climbing FlightAware ADS-B
Mon 04:32:12 PM 45.2810 -75.2290 257° West 422 486 30,300 2,965 Climbing FlightAware ADS-B
Mon 04:32:52 PM 45.2620 -75.3360 256° West 411 473 32,400 2,700 Climbing FlightAware ADS-B
Mon 04:33:32 PM 45.2440 -75.4380 256° West 406 467 33,900 1,129 Climbing FlightAware ADS-B
Mon 04:34:17 PM 45.2240 -75.5500 256° West 403 464 34,000 71 Climbing FlightAware ADS-B
Mon 04:34:57 PM 45.2050 -75.6560 256° West 401 461 34,000  Level FlightAware ADS-B
Mon 04:35:42 PM 45.1840 -75.7730 256° West 401 461 34,000  Level FlightAware ADS-B
Mon 04:36:22 PM 45.1660 -75.8720 256° West 402 463 34,000  Level FlightAware ADS-B
Mon 04:37:02 PM 45.1470 -75.9740 255° West 402 463 34,000  Level FlightAware ADS-B
Mon 04:37:47 PM 45.1270 -76.0850 256° West 402 463 34,000  Level FlightAware ADS-B
Mon 04:38:22 PM 45.1120 -76.1710 256° West 402 463 34,000  Level FlightAware ADS-B
Mon 04:39:12 PM 45.0780 -76.2880 248° West 409 471 34,000  Level FlightAware ADS-B
Mon 04:39:52 PM 45.0390 -76.3880 241° Southwest 410 472 34,000  Level FlightAware ADS-B
Mon 04:40:32 PM 45.0040 -76.4760 241° Southwest 411 473 34,000  Level FlightAware ADS-B
Mon 04:41:17 PM 44.9610 -76.5850 241° Southwest 411 473 34,000  Level FlightAware ADS-B
Mon 04:41:57 PM 44.9260 -76.6730 241° Southwest 411 473 34,000  Level FlightAware ADS-B
Mon 04:42:42 PM 44.8810 -76.7840 240° Southwest 412 474 34,000  Level FlightAware ADS-B
Mon 04:43:22 PM 44.8430 -76.8780 240° Southwest 413 475 34,000  Level FlightAware ADS-B
Mon 04:44:02 PM 44.8060 -76.9700 240° Southwest 415 478 34,000  Level FlightAware ADS-B
Mon 04:44:47 PM 44.7640 -77.0740 240° Southwest 415 478 34,000  Level FlightAware ADS-B
Mon 04:45:27 PM 44.7260 -77.1690 241° Southwest 416 479 34,000  Level FlightAware ADS-B
Mon 04:46:12 PM 44.6830 -77.2760 241° Southwest 416 479 34,000  Level FlightAware ADS-B
Mon 04:46:52 PM 44.6460 -77.3650 240° Southwest 416 479 34,000  Level FlightAware ADS-B
Mon 04:47:32 PM 44.6060 -77.4640 240° Southwest 416 479 34,000  Level FlightAware ADS-B
Mon 04:48:17 PM 44.5630 -77.5670 240° Southwest 416 479 34,000  Level FlightAware ADS-B
Mon 04:48:57 PM 44.5240 -77.6620 240° Southwest 416 479 34,000  Level FlightAware ADS-B
Mon 04:49:37 PM 44.4880 -77.7500 240° Southwest 416 479 34,000  Level FlightAware ADS-B
Mon 04:50:22 PM 44.4450 -77.8540 240° Southwest 415 478 34,000 -635 Level FlightAware ADS-B
Mon 04:51:02 PM 44.4050 -77.9480 239° Southwest 404 465 33,100 -1,624 Descending FlightAware ADS-B
Mon 04:51:47 PM 44.3650 -78.0440 240° Southwest 395 455 31,700 -1,800 Descending FlightAware ADS-B
Mon 04:52:32 PM 44.3250 -78.1390 240° Southwest 388 447 30,400 -1,906 Descending FlightAware ADS-B
Mon 04:53:12 PM 44.2890 -78.2260 240° Southwest 381 438 29,000 -2,100 Descending FlightAware ADS-B
Mon 04:53:52 PM 44.2500 -78.3180 239° Southwest 374 430 27,600 -1,976 Descending FlightAware ADS-B
Mon 04:54:37 PM 44.2110 -78.4100 239° Southwest 368 423 26,200 -1,906 Descending FlightAware ADS-B
Mon 04:55:17 PM 44.1770 -78.4900 239° Southwest 363 418 24,900 -1,906 Descending FlightAware ADS-B
Mon 04:56:02 PM 44.1390 -78.5790 239° Southwest 357 411 23,500 -1,835 Descending FlightAware ADS-B
Mon 04:56:42 PM 44.1080 -78.6510 239° Southwest 353 406 22,300 -1,875 Descending FlightAware ADS-B
Mon 04:57:22 PM 44.0740 -78.7310 239° Southwest 348 400 21,000 -1,976 Descending FlightAware ADS-B
Mon 04:58:07 PM 44.0350 -78.8220 239° Southwest 344 396 19,500 -1,694 Descending FlightAware ADS-B
Mon 04:58:47 PM 44.0010 -78.8940 237° Southwest 332 382 18,600 -1,341 Descending FlightAware ADS-B
Mon 04:59:32 PM 43.9650 -78.9740 238° Southwest 318 366 17,600 -1,412 Descending FlightAware ADS-B
Mon 05:00:12 PM 43.9350 -79.0380 237° Southwest 311 358 16,600 -1,500 Descending FlightAware ADS-B
Mon 05:00:52 PM 43.9030 -79.1080 238° Southwest 304 350 15,600 -1,624 Descending FlightAware ADS-B
Mon 05:01:37 PM 43.8690 -79.1820 238° Southwest 304 350 14,300 -1,624 Descending FlightAware ADS-B
Mon 05:02:17 PM 43.8390 -79.2470 237° Southwest 299 344 13,300 -1,482 Descending FlightAware ADS-B
Mon 05:03:02 PM 43.8060 -79.3180 237° Southwest 296 341 12,200 -1,553 Descending FlightAware ADS-B
Mon 05:03:42 PM 43.7830 -79.3880 246° West 297 342 11,100 -1,500 Descending FlightAware ADS-B
Mon 05:04:22 PM 43.7760 -79.4600 262° West 294 338 10,200 -1,286 Descending FlightAware ADS-B
Mon 05:04:52 PM 43.7700 -79.5160 262° West 286 329 9,600 -1,091 Descending FlightAware ADS-B
Mon 05:05:17 PM 43.7660 -79.5610 263° West 274 315 9,200 -873 Descending FlightAware ADS-B
Mon 05:05:47 PM 43.7610 -79.6100 262° West 259 298 8,800 -764 Descending FlightAware ADS-B
Mon 05:06:12 PM 43.7570 -79.6510 262° West 247 284 8,500 -800 Descending FlightAware ADS-B
Mon 05:06:32 PM 43.7530 -79.6820 260° West 243 280 8,200 -1,467 Descending FlightAware ADS-B
Mon 05:06:57 PM 43.7470 -79.7200 258° West 241 277 7,400 -1,950 Descending FlightAware ADS-B
Mon 05:07:12 PM 43.7380 -79.7390 237° Southwest 240 276 6,900 -2,133 Descending FlightAware ADS-B
Mon 05:07:42 PM 43.7150 -79.7710 225° Southwest 237 273 5,800 -1,964 Descending FlightAware ADS-B
Mon 05:08:07 PM 43.6970 -79.7980 227° Southwest 229 264 5,100 -1,309 Descending FlightAware ADS-B
Mon 05:08:37 PM 43.6760 -79.8280 226° Southwest 218 251 4,600 -982 Descending FlightAware ADS-B
Mon 05:09:02 PM 43.6580 -79.8540 226° Southwest 215 247 4,200 -1,200 Descending FlightAware ADS-B
Mon 05:09:32 PM 43.6360 -79.8820 223° Southwest 215 247 3,500 -1,350 Descending FlightAware ADS-B
Mon 05:09:42 PM 43.6260 -79.8840 188° South 205 236 3,300 -750 Descending FlightAware ADS-B
Mon 05:10:12 PM 43.6020 -79.8660 151° Southeast 183 211 3,000 -367 Descending FlightAware ADS-B
Mon 05:10:31 PM 43.5833 -79.8333 26° Northeast 190 219 3,000 -200 Level Toronto Center
Mon 05:10:42 PM 43.5830 -79.8440 140° Southeast 175 201 2,900 -286 Descending FlightAware ADS-B
Mon 05:10:52 PM 43.5800 -79.8330 111° Southeast 176 203 2,900  Level FlightAware ADS-B
Mon 05:11:07 PM 43.5820 -79.8160 81° East 180 207 2,900 154 Level FlightAware ADS-B
Mon 05:11:31 PM 43.5833 -79.7667 90° East 180 207 3,000 -200 Climbing Toronto Center
Mon 05:11:37 PM 43.5910 -79.7850 68° East 183 211 2,800 -1,167 Descending FlightAware ADS-B
Mon 05:12:07 PM 43.6080 -79.7600 47° Northeast 177 204 2,300 -900 Descending FlightAware ADS-B
Mon 05:12:17 PM 43.6140 -79.7520 44° Northeast 172 198 2,200 -500 Descending FlightAware ADS-B
Mon 05:12:31 PM 43.6167 -79.7333 36° Northeast 170 196 2,100 -1,000 Descending Toronto Center
Mon 05:12:47 PM 43.6290 -79.7290 48° Northeast 154 177 1,700 -913 Descending FlightAware ADS-B
Mon 05:13:17 PM 43.6430 -79.7090 46° Northeast 142 163 1,400 -545 Descending FlightAware ADS-B
Mon 05:13:31 PM 43.6333 -79.6833 65° Northeast 150 173 1,300 -720 Descending Toronto Center
Mon 05:13:42 PM 43.6540 -79.6930 46° Northeast 141 162 1,100 -968 Descending FlightAware ADS-B
Mon 05:14:02 PM 43.6620 -79.6810 47° Northeast 142 163 800 -735 Descending FlightAware ADS-B
Mon 05:14:31 PM 43.6667 -79.6333 47° Northeast 140 161 500 -621 Descending Toronto Center
Mon 05:16:00 PM 43.6772 -79.6306 26° Northeast  Level Estimated

Login

Don't have an account? Register now (free) for customized features, flight alerts, and more!